createdAt,value
2022-11-06T00:02:03.465Z,7.60
2022-11-06T00:04:31.219Z,8.57
2022-11-06T00:06:58.949Z,9.20
2022-11-06T00:09:26.853Z,7.88
2022-11-06T00:11:54.683Z,8.88
2022-11-06T00:14:22.535Z,9.70
2022-11-06T00:16:50.095Z,8.52
2022-11-06T00:19:18.015Z,7.38
2022-11-06T00:21:46.327Z,7.18
2022-11-06T00:24:15.590Z,9.20
2022-11-06T00:26:43.862Z,8.75
2022-11-06T00:29:15.597Z,6.65
2022-11-06T00:31:43.380Z,7.63
2022-11-06T00:34:11.619Z,7.50
2022-11-06T00:36:39.337Z,5.27
2022-11-06T00:39:07.146Z,7.35
2022-11-06T00:41:34.555Z,8.98
2022-11-06T00:44:02.976Z,7.13
2022-11-06T00:46:31.393Z,7.30
2022-11-06T00:48:59.400Z,5.25
2022-11-06T00:51:32.606Z,5.85
2022-11-06T00:54:02.431Z,6.38
2022-11-06T00:56:31.192Z,5.88
2022-11-06T00:59:00.647Z,7.43
2022-11-06T01:01:39.858Z,6.28
2022-11-06T01:04:11.827Z,6.70
2022-11-06T01:06:42.328Z,6.60
2022-11-06T01:09:13.577Z,6.55
2022-11-06T01:12:11.775Z,5.20
2022-11-06T01:14:31.701Z,5.20
2022-11-06T01:16:59.190Z,4.80
2022-11-06T01:19:27.136Z,4.88
2022-11-06T01:21:54.712Z,4.97
2022-11-06T01:24:25.567Z,4.97
2022-11-06T01:27:24.425Z,4.60
2022-11-06T01:29:41.544Z,4.13
2022-11-06T01:32:09.440Z,5.18
2022-11-06T01:34:36.932Z,4.50
2022-11-06T01:37:04.852Z,4.20
2022-11-06T01:39:32.435Z,4.78
2022-11-06T01:41:59.961Z,4.28
2022-11-06T01:44:33.613Z,3.83
2022-11-06T01:47:05.167Z,4.03
2022-11-06T01:49:38.112Z,4.38
2022-11-06T01:52:10.527Z,3.65
2022-11-06T01:54:40.313Z,4.55
2022-11-06T01:57:09.110Z,3.95
2022-11-06T01:59:40.142Z,3.78
2022-11-06T02:02:07.811Z,4.60
2022-11-06T02:04:42.865Z,3.38
2022-11-06T02:07:10.917Z,4.38
2022-11-06T02:09:38.677Z,3.40
2022-11-06T02:12:14.671Z,3.05
2022-11-06T02:15:12.806Z,3.35
2022-11-06T02:18:15.818Z,3.30
2022-11-06T02:21:02.301Z,3.08
2022-11-06T02:24:11.220Z,3.55
2022-11-06T02:29:45.577Z,3.15
2022-11-06T02:32:25.931Z,3.72
2022-11-06T02:34:56.264Z,3.67
2022-11-06T02:37:30.044Z,4.05
2022-11-06T02:40:01.835Z,4.15
2022-11-06T02:42:31.008Z,4.03
2022-11-06T02:45:00.740Z,5.68
2022-11-06T02:47:32.129Z,3.70
2022-11-06T02:50:17.472Z,3.85
2022-11-06T02:52:47.364Z,4.13
2022-11-06T02:55:21.456Z,3.97
2022-11-06T02:58:04.138Z,3.65
2022-11-06T03:00:33.795Z,3.85
2022-11-06T03:03:10.623Z,5.15
2022-11-06T03:05:47.563Z,5.05
2022-11-06T03:08:28.902Z,3.92
2022-11-06T03:11:09.794Z,5.28
2022-11-06T03:13:46.743Z,5.38
2022-11-06T03:16:33.584Z,4.60
2022-11-06T03:19:12.884Z,4.95
2022-11-06T03:22:10.724Z,4.97
2022-11-06T03:24:55.826Z,3.35
2022-11-06T03:27:33.098Z,4.80
2022-11-06T03:30:15.324Z,4.45
2022-11-06T03:32:50.508Z,4.80
2022-11-06T03:35:34.764Z,4.68
2022-11-06T03:38:14.976Z,5.30
2022-11-06T03:40:52.693Z,4.10
2022-11-06T03:43:26.313Z,4.13
2022-11-06T03:45:58.017Z,4.70
2022-11-06T03:48:31.366Z,4.43
2022-11-06T03:51:08.300Z,4.07
2022-11-06T03:53:45.765Z,4.47
2022-11-06T03:56:27.692Z,4.68
2022-11-06T03:58:57.114Z,4.82
2022-11-06T04:01:29.605Z,4.70
2022-11-06T04:04:02.086Z,5.70
2022-11-06T04:06:37.643Z,4.88
2022-11-06T04:09:26.924Z,4.85
2022-11-06T04:12:17.539Z,4.68
2022-11-06T04:14:49.028Z,4.93
2022-11-06T04:17:18.457Z,3.92
2022-11-06T04:19:52.586Z,4.03
2022-11-06T04:22:47.021Z,5.13
2022-11-06T04:25:35.997Z,4.25
2022-11-06T04:28:12.442Z,4.18
2022-11-06T04:31:03.167Z,4.60
2022-11-06T04:33:30.678Z,4.15
2022-11-06T04:36:04.568Z,5.07
2022-11-06T04:39:02.632Z,5.30
2022-11-06T04:41:45.823Z,5.15
2022-11-06T04:44:15.949Z,5.70
2022-11-06T04:46:49.747Z,5.80
2022-11-06T04:49:18.949Z,6.10
2022-11-06T04:54:15.904Z,6.03
2022-11-06T04:56:46.348Z,5.50
2022-11-06T04:59:17.648Z,6.60
2022-11-06T05:01:46.853Z,6.82
2022-11-06T05:06:41.712Z,6.18
2022-11-06T05:09:09.896Z,6.32
2022-11-06T05:11:38.491Z,8.27
2022-11-06T05:14:06.105Z,6.30
2022-11-06T05:16:34.089Z,6.80
2022-11-06T05:19:01.579Z,6.95
2022-11-06T05:21:47.771Z,6.38
2022-11-06T05:24:15.458Z,6.95
2022-11-06T05:26:42.899Z,6.25
2022-11-06T05:29:12.554Z,7.40
2022-11-06T05:31:40.250Z,7.43
2022-11-06T05:36:36.755Z,7.05
2022-11-06T05:39:04.325Z,7.05
2022-11-06T05:41:31.735Z,10.52
2022-11-06T05:43:59.343Z,7.82
2022-11-06T05:46:47.615Z,7.88
2022-11-06T05:49:14.970Z,7.18
2022-11-06T05:51:43.455Z,10.70
2022-11-06T05:54:10.865Z,9.30
2022-11-06T05:56:38.310Z,9.57
2022-11-06T05:59:06.047Z,10.98
2022-11-06T06:01:33.933Z,11.15
2022-11-06T06:04:01.665Z,9.27
2022-11-06T06:06:29.303Z,12.23
2022-11-06T06:08:56.796Z,10.57
2022-11-06T06:11:24.570Z,14.80
2022-11-06T06:13:52.194Z,11.93
2022-11-06T06:16:19.974Z,13.02
2022-11-06T06:18:53.431Z,12.25
2022-11-06T06:21:21.406Z,13.50
2022-11-06T06:23:49.273Z,15.70
2022-11-06T06:26:16.919Z,14.77
2022-11-06T06:28:44.859Z,12.25
2022-11-06T06:31:12.379Z,18.38
2022-11-06T06:33:39.858Z,16.65
2022-11-06T06:36:07.877Z,18.08
2022-11-06T06:38:35.403Z,12.17
2022-11-06T06:41:05.404Z,14.02
2022-11-06T06:43:33.841Z,16.45
2022-11-06T06:46:04.199Z,13.80
2022-11-06T06:48:32.526Z,18.45
2022-11-06T06:51:00.897Z,14.00
2022-11-06T06:53:29.459Z,18.77
2022-11-06T06:56:00.992Z,22.52
2022-11-06T06:58:29.544Z,21.50
2022-11-06T07:01:05.586Z,19.20
2022-11-06T07:03:33.391Z,21.15
2022-11-06T07:06:01.217Z,21.27
2022-11-06T07:08:30.578Z,20.77
2022-11-06T07:11:03.844Z,16.55
2022-11-06T07:13:35.907Z,24.88
2022-11-06T07:16:06.466Z,25.55
2022-11-06T07:18:35.284Z,23.83
2022-11-06T07:21:11.182Z,20.17
2022-11-06T07:23:39.411Z,19.80
2022-11-06T07:26:07.093Z,19.20
2022-11-06T07:28:34.976Z,20.02
2022-11-06T07:31:05.143Z,16.15
2022-11-06T07:33:33.308Z,16.83
2022-11-06T07:36:06.180Z,12.38
2022-11-06T07:38:35.456Z,20.35
2022-11-06T07:43:31.561Z,18.17
2022-11-06T07:46:01.728Z,20.75
2022-11-06T07:48:30.213Z,22.25
2022-11-06T07:50:58.427Z,13.20
2022-11-06T07:53:25.965Z,17.35
2022-11-06T07:55:56.266Z,19.85
2022-11-06T07:58:24.627Z,17.98
2022-11-06T08:00:55.257Z,18.08
2022-11-06T08:03:24.235Z,22.92
2022-11-06T08:05:51.954Z,16.48
2022-11-06T08:08:20.515Z,17.92
2022-11-06T08:10:48.023Z,16.48
2022-11-06T08:13:18.295Z,17.75
2022-11-06T08:15:46.146Z,19.63
2022-11-06T08:18:14.172Z,20.90
2022-11-06T08:20:42.298Z,19.75
2022-11-06T08:23:12.843Z,16.05
2022-11-06T08:25:40.874Z,17.38
2022-11-06T08:28:09.831Z,17.30
2022-11-06T08:33:07.722Z,15.85
2022-11-06T08:35:35.910Z,12.85
2022-11-06T08:38:04.464Z,13.85
2022-11-06T08:40:32.204Z,16.95
2022-11-06T08:43:05.316Z,14.45
2022-11-06T08:45:35.896Z,15.27
2022-11-06T08:48:04.723Z,16.63
2022-11-06T08:50:33.143Z,16.15
2022-11-06T08:53:04.143Z,11.90
2022-11-06T08:55:33.903Z,16.52
2022-11-06T08:58:01.639Z,14.60
2022-11-06T09:00:29.935Z,17.80
2022-11-06T09:03:05.381Z,16.42
2022-11-06T09:05:33.794Z,18.35
2022-11-06T09:08:01.984Z,18.07
2022-11-06T09:10:29.550Z,19.42
2022-11-06T09:12:59.459Z,17.02
2022-11-06T09:15:27.637Z,23.27
2022-11-06T09:17:55.204Z,15.33
2022-11-06T09:20:24.559Z,17.67
2022-11-06T09:22:52.800Z,14.48
2022-11-06T09:25:20.459Z,13.80
2022-11-06T09:27:54.455Z,15.73
2022-11-06T09:30:28.634Z,14.60
2022-11-06T09:32:59.789Z,19.35
2022-11-06T09:35:29.530Z,15.65
2022-11-06T09:38:09.829Z,16.55
2022-11-06T09:40:42.558Z,14.13
2022-11-06T09:44:02.801Z,17.13
2022-11-06T09:46:25.190Z,15.90
2022-11-06T09:49:11.417Z,19.15
2022-11-06T09:51:48.083Z,13.57
2022-11-06T09:54:45.004Z,11.35
2022-11-06T09:57:23.242Z,14.23
2022-11-06T09:59:52.213Z,12.93
2022-11-06T10:02:36.854Z,11.88
2022-11-06T10:05:10.747Z,16.45
2022-11-06T10:07:40.959Z,11.18
2022-11-06T10:10:16.962Z,8.02
2022-11-06T10:13:00.472Z,10.18
2022-11-06T10:15:34.799Z,12.30
2022-11-06T10:18:37.744Z,8.90
2022-11-06T10:21:18.301Z,14.88
2022-11-06T10:23:58.007Z,8.50
2022-11-06T10:26:33.885Z,11.80
2022-11-06T10:29:12.216Z,11.40
2022-11-06T10:32:05.407Z,11.18
2022-11-06T10:34:35.896Z,13.07
2022-11-06T10:37:08.855Z,11.70
2022-11-06T10:39:37.372Z,17.20
2022-11-06T10:42:14.661Z,10.57
2022-11-06T10:45:24.097Z,10.98
2022-11-06T10:47:56.076Z,10.80
2022-11-06T10:50:33.662Z,10.23
2022-11-06T10:53:22.102Z,12.63
2022-11-06T10:56:10.685Z,8.23
2022-11-06T10:58:38.756Z,7.45
2022-11-06T11:01:09.281Z,8.35
2022-11-06T11:03:42.157Z,8.57
2022-11-06T11:06:10.261Z,11.32
2022-11-06T11:08:43.184Z,11.38
2022-11-06T11:11:13.972Z,9.32
2022-11-06T11:13:56.736Z,8.38
2022-11-06T11:16:27.813Z,10.98
2022-11-06T11:19:16.392Z,7.45
2022-11-06T11:21:58.170Z,5.60
2022-11-06T11:24:26.815Z,10.93
2022-11-06T11:27:01.055Z,8.55
2022-11-06T11:29:45.307Z,12.80
2022-11-06T11:32:16.075Z,12.23
2022-11-06T11:34:56.984Z,12.00
2022-11-06T11:37:30.339Z,7.25
2022-11-06T11:40:36.575Z,12.70
2022-11-06T11:43:23.867Z,12.25
2022-11-06T11:46:19.221Z,8.52
2022-11-06T11:48:58.155Z,10.48
2022-11-06T11:51:44.545Z,9.77
2022-11-06T11:54:12.672Z,6.90
2022-11-06T11:57:06.970Z,7.30
2022-11-06T11:59:46.335Z,10.02
2022-11-06T12:02:30.912Z,12.05
2022-11-06T12:05:08.151Z,10.07
2022-11-06T12:07:43.401Z,8.70
2022-11-06T12:10:32.963Z,10.00
2022-11-06T12:13:22.627Z,7.97
2022-11-06T12:15:59.019Z,9.13
2022-11-06T12:18:48.230Z,8.10
2022-11-06T12:21:28.129Z,11.13
2022-11-06T12:26:44.559Z,5.47
2022-11-06T12:29:17.393Z,13.07
2022-11-06T12:32:15.491Z,8.00
2022-11-06T12:35:06.870Z,11.50
2022-11-06T12:37:57.807Z,6.95
2022-11-06T12:40:30.784Z,9.80
2022-11-06T12:43:07.031Z,8.82
2022-11-06T12:45:44.058Z,10.98
2022-11-06T12:48:32.147Z,16.55
2022-11-06T12:51:18.052Z,8.50
2022-11-06T12:54:03.016Z,7.40
2022-11-06T12:56:52.390Z,9.52
2022-11-06T12:59:51.322Z,6.80
2022-11-06T13:02:51.521Z,4.22
2022-11-06T13:05:27.978Z,9.48
2022-11-06T13:08:34.947Z,4.38
2022-11-06T13:11:33.735Z,6.40
2022-11-06T13:14:16.696Z,9.43
2022-11-06T13:16:56.943Z,6.68
2022-11-06T13:19:37.146Z,8.63
2022-11-06T13:22:23.602Z,9.50
2022-11-06T13:25:17.380Z,6.93
2022-11-06T13:28:04.915Z,7.10
2022-11-06T13:30:33.852Z,5.97
2022-11-06T13:33:10.667Z,6.43
2022-11-06T13:35:42.230Z,5.60
2022-11-06T13:38:19.386Z,8.93
2022-11-06T13:40:53.751Z,8.20
2022-11-06T13:43:46.012Z,11.02
2022-11-06T13:46:22.592Z,8.55
2022-11-06T13:48:59.544Z,6.22
2022-11-06T13:51:27.170Z,13.00
2022-11-06T13:54:15.418Z,8.30
2022-11-06T13:57:04.669Z,9.88
2022-11-06T13:59:46.216Z,8.85
2022-11-06T14:02:37.773Z,8.40
2022-11-06T14:05:37.690Z,7.97
2022-11-06T14:08:12.107Z,6.50
2022-11-06T14:10:55.613Z,10.43
2022-11-06T14:13:27.000Z,10.57
2022-11-06T14:16:13.198Z,9.38
2022-11-06T14:18:42.086Z,12.80
2022-11-06T14:21:28.612Z,10.25
2022-11-06T14:24:05.840Z,7.95
2022-11-06T14:26:40.260Z,9.93
2022-11-06T14:29:25.912Z,9.82
2022-11-06T14:32:11.070Z,8.65
2022-11-06T14:34:40.556Z,10.55
2022-11-06T14:37:19.781Z,8.38
2022-11-06T14:39:56.238Z,7.95
2022-11-06T14:42:27.077Z,8.95
2022-11-06T14:44:57.599Z,8.75
2022-11-06T14:47:38.523Z,10.40
2022-11-06T14:50:19.074Z,12.13
2022-11-06T14:52:52.630Z,11.43
2022-11-06T14:55:32.723Z,5.65
2022-11-06T14:58:20.924Z,8.80
2022-11-06T15:01:10.380Z,7.63
2022-11-06T15:03:54.910Z,12.85
2022-11-06T15:06:28.528Z,9.52
2022-11-06T15:09:11.419Z,8.75
2022-11-06T15:11:48.016Z,8.52
2022-11-06T15:14:15.954Z,10.93
2022-11-06T15:17:00.482Z,9.18
2022-11-06T15:19:42.632Z,7.03
2022-11-06T15:22:15.909Z,12.07
2022-11-06T15:25:16.195Z,14.07
2022-11-06T15:27:48.635Z,14.85
2022-11-06T15:30:19.451Z,17.40
2022-11-06T15:32:50.968Z,12.15
2022-11-06T15:35:28.741Z,8.57
2022-11-06T15:38:05.007Z,10.38
2022-11-06T15:40:35.761Z,11.48
2022-11-06T15:43:07.451Z,10.73
2022-11-06T15:45:35.172Z,32.65
2022-11-06T15:48:06.631Z,22.60
2022-11-06T15:50:36.528Z,22.38
2022-11-06T15:53:13.864Z,14.25
2022-11-06T15:55:52.666Z,11.40
2022-11-06T15:58:23.067Z,13.02
2022-11-06T16:00:52.740Z,11.02
2022-11-06T16:03:23.312Z,11.75
2022-11-06T16:05:53.751Z,11.27
2022-11-06T16:08:25.998Z,11.30
2022-11-06T16:10:55.895Z,8.70
2022-11-06T16:13:25.271Z,10.73
2022-11-06T16:15:58.915Z,12.20
2022-11-06T16:18:33.422Z,10.07
2022-11-06T16:21:17.534Z,11.73
2022-11-06T16:23:45.132Z,12.65
2022-11-06T16:26:16.485Z,10.48
2022-11-06T16:28:47.103Z,11.27
2022-11-06T16:31:18.873Z,10.98
2022-11-06T16:33:54.208Z,9.77
2022-11-06T16:36:23.059Z,11.23
2022-11-06T16:38:52.090Z,11.70
2022-11-06T16:41:39.803Z,9.30
2022-11-06T16:44:29.625Z,8.60
2022-11-06T16:47:05.706Z,9.05
2022-11-06T16:49:35.493Z,10.95
2022-11-06T16:52:18.464Z,11.20
2022-11-06T16:54:52.242Z,11.27
2022-11-06T16:57:24.319Z,12.18
2022-11-06T16:59:58.878Z,10.90
2022-11-06T17:02:30.942Z,11.30
2022-11-06T17:05:12.874Z,9.23
2022-11-06T17:07:42.352Z,13.85
2022-11-06T17:10:47.299Z,8.57
2022-11-06T17:13:19.218Z,11.18
2022-11-06T17:15:56.401Z,10.00
2022-11-06T17:18:26.966Z,12.95
2022-11-06T17:21:00.463Z,12.57
2022-11-06T17:23:30.099Z,23.48
2022-11-06T17:26:02.278Z,19.98
2022-11-06T17:28:30.391Z,39.33
2022-11-06T17:30:58.496Z,10.77
2022-11-06T17:33:26.376Z,14.48
2022-11-06T17:35:54.038Z,13.02
2022-11-06T17:38:21.860Z,10.13
2022-11-06T17:40:49.392Z,13.73
2022-11-06T17:43:17.793Z,7.13
2022-11-06T17:45:49.794Z,11.32
2022-11-06T17:48:17.966Z,10.05
2022-11-06T17:51:04.167Z,10.13
2022-11-06T17:53:32.191Z,9.40
2022-11-06T17:56:03.861Z,10.52
2022-11-06T17:58:33.634Z,10.75
2022-11-06T18:01:09.180Z,9.90
2022-11-06T18:03:44.857Z,10.80
2022-11-06T18:06:15.421Z,9.52
2022-11-06T18:08:43.363Z,10.63
2022-11-06T18:11:11.928Z,8.07
2022-11-06T18:13:40.369Z,9.63
2022-11-06T18:16:19.708Z,11.20
2022-11-06T18:18:48.481Z,8.63
2022-11-06T18:21:16.975Z,10.48
2022-11-06T18:23:45.019Z,11.40
2022-11-06T18:26:13.536Z,7.93
2022-11-06T18:28:42.061Z,9.15
2022-11-06T18:31:10.965Z,9.45
2022-11-06T18:33:38.988Z,12.07
2022-11-06T18:36:10.524Z,9.32
2022-11-06T18:38:39.637Z,10.93
2022-11-06T18:41:20.476Z,9.68
2022-11-06T18:43:48.801Z,8.93
2022-11-06T18:46:18.941Z,6.55
2022-11-06T18:48:49.779Z,7.00
2022-11-06T18:54:05.343Z,9.43
2022-11-06T18:56:36.005Z,9.60
2022-11-06T18:59:09.122Z,8.18
2022-11-06T19:01:37.287Z,10.48
2022-11-06T19:04:08.498Z,6.88
2022-11-06T19:06:38.068Z,9.57
2022-11-06T19:09:09.683Z,9.40
2022-11-06T19:11:38.144Z,9.45
2022-11-06T19:14:06.183Z,8.00
2022-11-06T19:16:35.548Z,6.68
2022-11-06T19:19:05.986Z,9.03
2022-11-06T19:21:35.845Z,7.88
2022-11-06T19:24:05.589Z,7.35
2022-11-06T19:26:36.251Z,8.07
2022-11-06T19:29:08.621Z,12.57
2022-11-06T19:31:37.961Z,6.68
2022-11-06T19:34:12.793Z,9.57
2022-11-06T19:36:41.162Z,8.07
2022-11-06T19:39:09.176Z,8.88
2022-11-06T19:41:38.285Z,8.50
2022-11-06T19:44:08.432Z,6.50
2022-11-06T19:46:36.623Z,6.15
2022-11-06T19:49:05.712Z,8.85
2022-11-06T19:51:37.676Z,6.53
2022-11-06T19:54:06.152Z,7.95
2022-11-06T19:56:33.996Z,9.60
2022-11-06T19:59:02.378Z,8.90
2022-11-06T20:01:30.440Z,10.30
2022-11-06T20:03:58.269Z,7.15
2022-11-06T20:06:27.527Z,7.35
2022-11-06T20:08:56.082Z,8.30
2022-11-06T20:11:24.202Z,8.63
2022-11-06T20:13:52.378Z,8.10
2022-11-06T20:16:21.367Z,10.50
2022-11-06T20:18:56.287Z,9.23
2022-11-06T20:21:29.102Z,6.45
2022-11-06T20:23:57.284Z,8.50
2022-11-06T20:26:25.202Z,8.75
2022-11-06T20:28:52.905Z,10.75
2022-11-06T20:31:20.582Z,5.30
2022-11-06T20:33:50.105Z,9.82
2022-11-06T20:36:23.982Z,8.07
2022-11-06T20:38:53.926Z,7.40
2022-11-06T20:41:21.972Z,8.75
2022-11-06T20:43:50.818Z,8.98
2022-11-06T20:46:20.420Z,9.35
2022-11-06T20:48:48.907Z,5.90
2022-11-06T20:51:22.882Z,6.38
2022-11-06T20:53:51.532Z,5.75
2022-11-06T20:58:49.507Z,8.05
2022-11-06T21:01:20.865Z,7.85
2022-11-06T21:03:50.097Z,9.65
2022-11-06T21:06:19.899Z,9.13
2022-11-06T21:08:48.000Z,9.10
2022-11-06T21:11:18.314Z,5.88
2022-11-06T21:13:50.402Z,9.63
2022-11-06T21:16:23.093Z,7.75
2022-11-06T21:18:51.721Z,6.80
2022-11-06T21:21:22.921Z,8.68
2022-11-06T21:23:51.922Z,6.15
2022-11-06T21:28:52.097Z,6.72
2022-11-06T21:31:21.938Z,10.82
2022-11-06T21:33:50.928Z,6.88
2022-11-06T21:36:25.434Z,9.13
2022-11-06T21:38:54.102Z,9.50
2022-11-06T21:41:25.512Z,6.28
2022-11-06T21:43:53.361Z,7.25
2022-11-06T21:46:22.142Z,5.47
2022-11-06T21:48:50.568Z,9.00
2022-11-06T21:51:21.733Z,10.38
2022-11-06T21:54:08.426Z,12.13
2022-11-06T21:56:37.478Z,9.65
2022-11-06T22:01:34.551Z,5.85
2022-11-06T22:04:02.517Z,6.00
2022-11-06T22:06:30.749Z,9.40
2022-11-06T22:09:00.462Z,6.70
2022-11-06T22:11:33.395Z,6.57
2022-11-06T22:14:04.684Z,6.50
2022-11-06T22:16:36.438Z,6.63
2022-11-06T22:19:06.783Z,6.53
2022-11-06T22:21:35.571Z,4.22
2022-11-06T22:24:03.637Z,6.47
2022-11-06T22:26:33.773Z,7.65
2022-11-06T22:29:03.744Z,6.88
2022-11-06T22:31:31.185Z,6.13
2022-11-06T22:33:59.348Z,10.75
2022-11-06T22:36:27.396Z,8.37
2022-11-06T22:38:55.527Z,6.13
2022-11-06T22:41:24.667Z,7.63
2022-11-06T22:46:23.091Z,5.85
2022-11-06T22:48:52.046Z,7.00
2022-11-06T22:51:25.759Z,6.07
2022-11-06T22:53:54.048Z,7.32
2022-11-06T22:56:23.358Z,5.40
2022-11-06T22:59:00.198Z,6.47
2022-11-06T23:01:30.782Z,6.50
2022-11-06T23:04:03.043Z,8.10
2022-11-06T23:06:31.650Z,7.13
2022-11-06T23:08:59.491Z,7.55
2022-11-06T23:11:28.966Z,9.82
2022-11-06T23:13:58.347Z,9.82
2022-11-06T23:16:45.763Z,7.18
2022-11-06T23:19:16.323Z,8.55
2022-11-06T23:21:44.621Z,7.38
2022-11-06T23:24:12.398Z,8.07
2022-11-06T23:26:41.530Z,8.77
2022-11-06T23:29:09.097Z,9.20
2022-11-06T23:31:36.699Z,7.35
2022-11-06T23:34:04.212Z,9.70
2022-11-06T23:36:31.693Z,8.30
2022-11-06T23:38:59.569Z,9.35
2022-11-06T23:41:46.212Z,7.70
2022-11-06T23:44:33.800Z,7.50
2022-11-06T23:47:01.676Z,6.75
2022-11-06T23:49:29.772Z,8.52
2022-11-06T23:51:57.243Z,10.63
2022-11-06T23:54:25.742Z,9.35
2022-11-06T23:56:53.542Z,8.40
2022-11-06T23:59:21.355Z,8.95
